This is the latest recevied weather packets stored in our database for station/object HK3BJ-13. If no packets are shown the sender has not sent any weather packets the latest 10 day(s).
| Time | Temp. | Humidity | Pressure | Rain* | Wind** | Luminosity | Snow |
|---|---|---|---|---|---|---|---|
| 1787930287 | 18.33° C | 58% | 1016 hPa | 0 mm | - | - | - |
| 1787929334 | 18.33° C | 58% | 1016 hPa | 0 mm | - | - | - |
| 1787928370 | 18.33° C | 58% | 1016 hPa | 0 mm | - | - | - |
| 1787927407 | 14.44° C | 72% | 1016 hPa | 0 mm | - | - | - |
| 1787926449 | 14.44° C | 72% | 1017 hPa | 0 mm | - | - | - |
| 1787925498 | 15° C | 72% | 1017 hPa | 0 mm | - | - | - |
| 1787924532 | 14.44° C | 75% | 1018 hPa | 0 mm | - | - | - |
| 1787923586 | 14.44° C | 78% | 1018 hPa | 0 mm | - | - | - |
| 1787922641 | 14.44° C | 78% | 1018 hPa | 0 mm | - | - | - |
| 1787921699 | 14.44° C | 78% | 1018 hPa | 0 mm | - | - | - |
| 1787920756 | 11.67° C | 90% | 1019 hPa | 0 mm | - | - | - |
| 1787919810 | 11.11° C | 94% | 1019 hPa | 0 mm | - | - | - |
| 1787918864 | 11.11° C | 96% | 1019 hPa | 0 mm | - | - | - |
| 1787917915 | 11.11° C | 96% | 1019 hPa | 0 mm | - | - | - |
| 1787916969 | 11.11° C | 96% | 1019 hPa | 0 mm | - | - | - |
| 1787916025 | 11.11° C | 96% | 1019 hPa | 0 mm | - | - | - |
| 1787915083 | 11.11° C | 96% | 1019 hPa | 0 mm | - | - | - |
| 1787914138 | 11.11° C | 96% | 1019 hPa | 0 mm | - | - | - |
| 1787913195 | 11.11° C | 96% | 1019 hPa | 0 mm | - | - | - |
| 1787912253 | 11.11° C | 96% | 1019 hPa | 0 mm | - | - | - |
| 1787911305 | 11.11° C | 97% | 1019 hPa | 0 mm | - | - | - |
| 1787910362 | 11.67° C | 96% | 1019 hPa | 0 mm | - | - | - |
| 1787909420 | 11.67° C | 95% | 1019 hPa | 0 mm | - | - | - |
| 1787908475 | 11.67° C | 94% | 1018 hPa | 0 mm | - | - | - |
| 1787907531 | 12.22° C | 92% | 1018 hPa | 0 mm | - | - | - |
* Rain latest hour (hover to see other rain measurements)
** Current wind speed in m/s (hover to see current wind gust speed)